sensor_id;sensor_type;location;lat;lon;timestamp;P1;durP1;ratioP1;P2;durP2;ratioP2
51529;SDS011;37613;51.788;21.582;2024-01-15T00:03:59;41.00;;;18.50;;
51529;SDS011;37613;51.788;21.582;2024-01-15T00:08:02;35.90;;;17.70;;
51529;SDS011;37613;51.788;21.582;2024-01-15T00:12:05;22.60;;;12.30;;
51529;SDS011;37613;51.788;21.582;2024-01-15T00:16:07;24.50;;;14.10;;
51529;SDS011;37613;51.788;21.582;2024-01-15T00:20:09;21.90;;;10.00;;
51529;SDS011;37613;51.788;21.582;2024-01-15T00:24:12;24.00;;;12.40;;
51529;SDS011;37613;51.788;21.582;2024-01-15T00:28:14;18.40;;;10.30;;
51529;SDS011;37613;51.788;21.582;2024-01-15T00:32:16;23.20;;;12.40;;
51529;SDS011;37613;51.788;21.582;2024-01-15T00:36:19;20.80;;;10.90;;
51529;SDS011;37613;51.788;21.582;2024-01-15T00:40:21;26.80;;;14.00;;
51529;SDS011;37613;51.788;21.582;2024-01-15T00:44:23;18.00;;;10.80;;
51529;SDS011;37613;51.788;21.582;2024-01-15T00:48:25;20.70;;;11.70;;
51529;SDS011;37613;51.788;21.582;2024-01-15T00:52:27;19.40;;;11.90;;
51529;SDS011;37613;51.788;21.582;2024-01-15T00:56:29;26.20;;;14.80;;
51529;SDS011;37613;51.788;21.582;2024-01-15T01:00:31;18.30;;;11.60;;
51529;SDS011;37613;51.788;21.582;2024-01-15T01:04:33;17.30;;;11.10;;
51529;SDS011;37613;51.788;21.582;2024-01-15T01:08:35;18.30;;;10.50;;
51529;SDS011;37613;51.788;21.582;2024-01-15T01:12:37;20.90;;;14.70;;
51529;SDS011;37613;51.788;21.582;2024-01-15T01:16:39;31.20;;;14.90;;
51529;SDS011;37613;51.788;21.582;2024-01-15T01:20:42;24.30;;;13.60;;
51529;SDS011;37613;51.788;21.582;2024-01-15T01:24:44;22.90;;;12.80;;
51529;SDS011;37613;51.788;21.582;2024-01-15T01:28:46;17.60;;;10.90;;
51529;SDS011;37613;51.788;21.582;2024-01-15T01:32:49;25.70;;;13.40;;
51529;SDS011;37613;51.788;21.582;2024-01-15T01:36:51;19.90;;;12.40;;
51529;SDS011;37613;51.788;21.582;2024-01-15T01:40:53;22.10;;;11.60;;
51529;SDS011;37613;51.788;21.582;2024-01-15T01:44:55;24.50;;;13.30;;
51529;SDS011;37613;51.788;21.582;2024-01-15T01:48:57;22.80;;;13.40;;
51529;SDS011;37613;51.788;21.582;2024-01-15T01:53:03;18.90;;;12.10;;
51529;SDS011;37613;51.788;21.582;2024-01-15T01:57:05;25.40;;;14.10;;
51529;SDS011;37613;51.788;21.582;2024-01-15T02:01:09;20.10;;;11.60;;
51529;SDS011;37613;51.788;21.582;2024-01-15T02:05:14;24.20;;;13.70;;
51529;SDS011;37613;51.788;21.582;2024-01-15T02:09:20;21.00;;;12.50;;
51529;SDS011;37613;51.788;21.582;2024-01-15T02:13:22;19.00;;;11.40;;
51529;SDS011;37613;51.788;21.582;2024-01-15T02:17:25;20.90;;;12.10;;
51529;SDS011;37613;51.788;21.582;2024-01-15T02:21:26;21.40;;;11.30;;
51529;SDS011;37613;51.788;21.582;2024-01-15T02:29:32;19.70;;;10.80;;
51529;SDS011;37613;51.788;21.582;2024-01-15T02:33:34;21.20;;;11.30;;
51529;SDS011;37613;51.788;21.582;2024-01-15T02:37:36;24.80;;;12.00;;
51529;SDS011;37613;51.788;21.582;2024-01-15T02:41:38;21.60;;;11.10;;
51529;SDS011;37613;51.788;21.582;2024-01-15T02:45:40;20.80;;;11.30;;
51529;SDS011;37613;51.788;21.582;2024-01-15T02:49:42;23.70;;;12.20;;
51529;SDS011;37613;51.788;21.582;2024-01-15T02:53:44;18.80;;;11.60;;
51529;SDS011;37613;51.788;21.582;2024-01-15T02:57:46;23.70;;;12.40;;
51529;SDS011;37613;51.788;21.582;2024-01-15T03:01:48;23.30;;;13.20;;
51529;SDS011;37613;51.788;21.582;2024-01-15T03:05:50;24.10;;;13.10;;
51529;SDS011;37613;51.788;21.582;2024-01-15T03:09:52;26.80;;;13.50;;
51529;SDS011;37613;51.788;21.582;2024-01-15T03:13:54;23.50;;;12.00;;
51529;SDS011;37613;51.788;21.582;2024-01-15T03:17:57;19.20;;;10.60;;
51529;SDS011;37613;51.788;21.582;2024-01-15T03:21:59;20.50;;;10.00;;
51529;SDS011;37613;51.788;21.582;2024-01-15T03:26:02;27.10;;;13.50;;
51529;SDS011;37613;51.788;21.582;2024-01-15T03:30:04;25.00;;;12.80;;
51529;SDS011;37613;51.788;21.582;2024-01-15T03:34:07;20.80;;;11.60;;
51529;SDS011;37613;51.788;21.582;2024-01-15T03:38:09;22.50;;;11.50;;
51529;SDS011;37613;51.788;21.582;2024-01-15T03:42:11;22.60;;;11.90;;
51529;SDS011;37613;51.788;21.582;2024-01-15T03:46:12;23.70;;;12.40;;
51529;SDS011;37613;51.788;21.582;2024-01-15T03:50:14;20.50;;;10.80;;
51529;SDS011;37613;51.788;21.582;2024-01-15T03:54:17;19.00;;;11.60;;
51529;SDS011;37613;51.788;21.582;2024-01-15T03:58:19;21.10;;;11.80;;
51529;SDS011;37613;51.788;21.582;2024-01-15T04:02:21;18.70;;;11.10;;
51529;SDS011;37613;51.788;21.582;2024-01-15T04:06:23;20.80;;;11.20;;
51529;SDS011;37613;51.788;21.582;2024-01-15T04:10:26;21.70;;;11.10;;
51529;SDS011;37613;51.788;21.582;2024-01-15T04:14:28;20.80;;;11.50;;
51529;SDS011;37613;51.788;21.582;2024-01-15T04:18:30;21.10;;;12.70;;
51529;SDS011;37613;51.788;21.582;2024-01-15T04:22:32;19.50;;;10.70;;
51529;SDS011;37613;51.788;21.582;2024-01-15T04:30:37;20.30;;;10.40;;
51529;SDS011;37613;51.788;21.582;2024-01-15T04:34:39;21.10;;;11.20;;
51529;SDS011;37613;51.788;21.582;2024-01-15T04:38:41;22.10;;;10.80;;
51529;SDS011;37613;51.788;21.582;2024-01-15T04:42:43;18.90;;;10.40;;
51529;SDS011;37613;51.788;21.582;2024-01-15T04:46:47;21.50;;;10.40;;
51529;SDS011;37613;51.788;21.582;2024-01-15T04:50:49;24.20;;;10.90;;
51529;SDS011;37613;51.788;21.582;2024-01-15T04:54:52;19.90;;;11.60;;
51529;SDS011;37613;51.788;21.582;2024-01-15T04:58:54;18.90;;;10.20;;
51529;SDS011;37613;51.788;21.582;2024-01-15T05:02:56;23.10;;;12.70;;
51529;SDS011;37613;51.788;21.582;2024-01-15T05:06:58;18.50;;;9.70;;
51529;SDS011;37613;51.788;21.582;2024-01-15T05:11:00;17.10;;;9.70;;
51529;SDS011;37613;51.788;21.582;2024-01-15T05:15:03;20.20;;;10.40;;
51529;SDS011;37613;51.788;21.582;2024-01-15T05:19:06;19.00;;;10.30;;
51529;SDS011;37613;51.788;21.582;2024-01-15T05:23:09;16.80;;;10.10;;
51529;SDS011;37613;51.788;21.582;2024-01-15T05:27:11;18.80;;;10.70;;
51529;SDS011;37613;51.788;21.582;2024-01-15T05:31:13;21.60;;;11.50;;
51529;SDS011;37613;51.788;21.582;2024-01-15T05:35:15;25.00;;;12.10;;
51529;SDS011;37613;51.788;21.582;2024-01-15T05:39:17;20.50;;;10.20;;
51529;SDS011;37613;51.788;21.582;2024-01-15T05:43:19;18.90;;;10.40;;
51529;SDS011;37613;51.788;21.582;2024-01-15T05:47:21;19.20;;;10.80;;
51529;SDS011;37613;51.788;21.582;2024-01-15T05:51:23;18.60;;;11.80;;
51529;SDS011;37613;51.788;21.582;2024-01-15T05:55:25;21.60;;;11.30;;
51529;SDS011;37613;51.788;21.582;2024-01-15T05:59:27;36.90;;;20.20;;
51529;SDS011;37613;51.788;21.582;2024-01-15T06:03:33;37.30;;;22.00;;
51529;SDS011;37613;51.788;21.582;2024-01-15T06:07:35;49.10;;;19.30;;
51529;SDS011;37613;51.788;21.582;2024-01-15T06:11:38;57.20;;;22.60;;
51529;SDS011;37613;51.788;21.582;2024-01-15T06:15:43;29.40;;;15.00;;
51529;SDS011;37613;51.788;21.582;2024-01-15T06:19:45;31.50;;;14.00;;
51529;SDS011;37613;51.788;21.582;2024-01-15T06:23:47;36.60;;;16.50;;
51529;SDS011;37613;51.788;21.582;2024-01-15T06:27:48;30.40;;;14.80;;
51529;SDS011;37613;51.788;21.582;2024-01-15T06:31:50;29.80;;;13.70;;
51529;SDS011;37613;51.788;21.582;2024-01-15T06:35:52;48.90;;;33.70;;
51529;SDS011;37613;51.788;21.582;2024-01-15T06:39:54;26.40;;;15.10;;
51529;SDS011;37613;51.788;21.582;2024-01-15T06:43:56;26.70;;;14.40;;
51529;SDS011;37613;51.788;21.582;2024-01-15T06:47:58;22.30;;;12.80;;
51529;SDS011;37613;51.788;21.582;2024-01-15T06:52:00;26.20;;;12.90;;
51529;SDS011;37613;51.788;21.582;2024-01-15T06:56:02;23.90;;;13.40;;
51529;SDS011;37613;51.788;21.582;2024-01-15T07:00:04;26.40;;;14.90;;
51529;SDS011;37613;51.788;21.582;2024-01-15T07:04:09;21.00;;;12.60;;
51529;SDS011;37613;51.788;21.582;2024-01-15T07:08:11;30.40;;;15.90;;
51529;SDS011;37613;51.788;21.582;2024-01-15T07:12:13;35.00;;;18.60;;
51529;SDS011;37613;51.788;21.582;2024-01-15T07:16:15;30.00;;;15.60;;
51529;SDS011;37613;51.788;21.582;2024-01-15T07:20:17;32.00;;;18.70;;
51529;SDS011;37613;51.788;21.582;2024-01-15T07:28:23;56.20;;;23.90;;
51529;SDS011;37613;51.788;21.582;2024-01-15T07:32:25;46.60;;;20.60;;
51529;SDS011;37613;51.788;21.582;2024-01-15T07:36:27;31.40;;;14.00;;
51529;SDS011;37613;51.788;21.582;2024-01-15T07:40:29;26.60;;;15.20;;
51529;SDS011;37613;51.788;21.582;2024-01-15T07:44:31;27.50;;;15.80;;
51529;SDS011;37613;51.788;21.582;2024-01-15T07:48:33;25.40;;;13.80;;
51529;SDS011;37613;51.788;21.582;2024-01-15T07:52:35;19.30;;;11.40;;
51529;SDS011;37613;51.788;21.582;2024-01-15T07:56:53;17.40;;;9.90;;
51529;SDS011;37613;51.788;21.582;2024-01-15T08:00:56;17.50;;;9.50;;
51529;SDS011;37613;51.788;21.582;2024-01-15T08:04:58;25.90;;;13.20;;
51529;SDS011;37613;51.788;21.582;2024-01-15T08:09:00;26.90;;;12.60;;
51529;SDS011;37613;51.788;21.582;2024-01-15T08:13:02;17.80;;;10.40;;
51529;SDS011;37613;51.788;21.582;2024-01-15T08:17:04;18.90;;;9.90;;
51529;SDS011;37613;51.788;21.582;2024-01-15T08:21:07;18.50;;;10.20;;
51529;SDS011;37613;51.788;21.582;2024-01-15T08:25:08;17.80;;;9.40;;
51529;SDS011;37613;51.788;21.582;2024-01-15T08:29:10;47.00;;;23.90;;
51529;SDS011;37613;51.788;21.582;2024-01-15T08:33:13;19.40;;;11.00;;
51529;SDS011;37613;51.788;21.582;2024-01-15T08:37:14;17.60;;;9.30;;
51529;SDS011;37613;51.788;21.582;2024-01-15T08:41:16;23.80;;;12.40;;
51529;SDS011;37613;51.788;21.582;2024-01-15T08:45:18;25.90;;;12.20;;
51529;SDS011;37613;51.788;21.582;2024-01-15T08:49:21;17.20;;;10.80;;
51529;SDS011;37613;51.788;21.582;2024-01-15T08:53:25;22.00;;;12.90;;
51529;SDS011;37613;51.788;21.582;2024-01-15T08:57:27;21.10;;;10.60;;
51529;SDS011;37613;51.788;21.582;2024-01-15T09:01:29;46.30;;;21.80;;
51529;SDS011;37613;51.788;21.582;2024-01-15T09:05:32;70.30;;;30.50;;
51529;SDS011;37613;51.788;21.582;2024-01-15T09:09:34;37.30;;;20.70;;
51529;SDS011;37613;51.788;21.582;2024-01-15T09:13:36;44.20;;;21.90;;
51529;SDS011;37613;51.788;21.582;2024-01-15T09:17:38;54.20;;;27.20;;
51529;SDS011;37613;51.788;21.582;2024-01-15T09:21:40;61.80;;;31.80;;
51529;SDS011;37613;51.788;21.582;2024-01-15T09:25:42;98.00;;;37.20;;
51529;SDS011;37613;51.788;21.582;2024-01-15T09:29:44;83.70;;;34.80;;
51529;SDS011;37613;51.788;21.582;2024-01-15T09:33:47;30.00;;;14.00;;
51529;SDS011;37613;51.788;21.582;2024-01-15T09:37:50;21.90;;;11.40;;
51529;SDS011;37613;51.788;21.582;2024-01-15T09:41:52;99.90;;;53.60;;
51529;SDS011;37613;51.788;21.582;2024-01-15T09:45:55;25.50;;;13.20;;
51529;SDS011;37613;51.788;21.582;2024-01-15T09:49:59;28.60;;;15.30;;
51529;SDS011;37613;51.788;21.582;2024-01-15T09:54:01;105.30;;;40.70;;
51529;SDS011;37613;51.788;21.582;2024-01-15T09:58:03;32.30;;;14.40;;
51529;SDS011;37613;51.788;21.582;2024-01-15T10:02:05;37.90;;;13.70;;
51529;SDS011;37613;51.788;21.582;2024-01-15T10:06:08;45.80;;;15.20;;
51529;SDS011;37613;51.788;21.582;2024-01-15T10:10:13;69.40;;;20.40;;
51529;SDS011;37613;51.788;21.582;2024-01-15T10:14:15;59.80;;;19.70;;
51529;SDS011;37613;51.788;21.582;2024-01-15T10:18:17;44.10;;;14.10;;
51529;SDS011;37613;51.788;21.582;2024-01-15T10:22:18;55.60;;;22.30;;
51529;SDS011;37613;51.788;21.582;2024-01-15T10:26:24;64.50;;;20.70;;
51529;SDS011;37613;51.788;21.582;2024-01-15T10:30:27;73.80;;;25.50;;
51529;SDS011;37613;51.788;21.582;2024-01-15T10:34:33;30.40;;;12.50;;
51529;SDS011;37613;51.788;21.582;2024-01-15T10:38:35;32.40;;;12.10;;
51529;SDS011;37613;51.788;21.582;2024-01-15T10:42:38;21.80;;;9.10;;
51529;SDS011;37613;51.788;21.582;2024-01-15T10:46:40;26.40;;;11.20;;
51529;SDS011;37613;51.788;21.582;2024-01-15T10:50:43;24.70;;;11.40;;
51529;SDS011;37613;51.788;21.582;2024-01-15T10:54:46;14.90;;;8.40;;
51529;SDS011;37613;51.788;21.582;2024-01-15T10:58:52;11.00;;;6.50;;
51529;SDS011;37613;51.788;21.582;2024-01-15T11:02:56;10.70;;;6.40;;
51529;SDS011;37613;51.788;21.582;2024-01-15T11:06:58;8.60;;;5.40;;
51529;SDS011;37613;51.788;21.582;2024-01-15T11:11:01;8.50;;;5.60;;
51529;SDS011;37613;51.788;21.582;2024-01-15T11:15:03;15.20;;;9.40;;
51529;SDS011;37613;51.788;21.582;2024-01-15T11:19:06;15.90;;;8.60;;
51529;SDS011;37613;51.788;21.582;2024-01-15T11:23:09;11.60;;;7.00;;
51529;SDS011;37613;51.788;21.582;2024-01-15T11:27:11;15.80;;;8.50;;
51529;SDS011;37613;51.788;21.582;2024-01-15T11:31:13;12.00;;;7.10;;
51529;SDS011;37613;51.788;21.582;2024-01-15T11:35:17;17.20;;;8.90;;
51529;SDS011;37613;51.788;21.582;2024-01-15T11:43:28;13.10;;;6.40;;
51529;SDS011;37613;51.788;21.582;2024-01-15T11:52:20;11.10;;;6.00;;
51529;SDS011;37613;51.788;21.582;2024-01-15T11:56:22;14.20;;;6.90;;
51529;SDS011;37613;51.788;21.582;2024-01-15T12:00:26;10.10;;;6.00;;
51529;SDS011;37613;51.788;21.582;2024-01-15T12:04:28;11.00;;;5.40;;
51529;SDS011;37613;51.788;21.582;2024-01-15T12:08:30;12.60;;;5.90;;
51529;SDS011;37613;51.788;21.582;2024-01-15T12:12:47;10.90;;;6.70;;
51529;SDS011;37613;51.788;21.582;2024-01-15T12:16:53;11.20;;;5.80;;
51529;SDS011;37613;51.788;21.582;2024-01-15T12:20:56;9.80;;;5.10;;
51529;SDS011;37613;51.788;21.582;2024-01-15T12:25:00;9.40;;;6.00;;
51529;SDS011;37613;51.788;21.582;2024-01-15T12:29:02;9.40;;;5.30;;
51529;SDS011;37613;51.788;21.582;2024-01-15T12:33:04;10.80;;;5.60;;
51529;SDS011;37613;51.788;21.582;2024-01-15T12:37:07;6.60;;;4.40;;
51529;SDS011;37613;51.788;21.582;2024-01-15T12:41:09;8.20;;;5.10;;
51529;SDS011;37613;51.788;21.582;2024-01-15T12:45:12;15.80;;;6.80;;
51529;SDS011;37613;51.788;21.582;2024-01-15T12:49:14;17.50;;;8.70;;
51529;SDS011;37613;51.788;21.582;2024-01-15T12:53:16;15.70;;;6.80;;
51529;SDS011;37613;51.788;21.582;2024-01-15T12:57:19;12.20;;;6.60;;
51529;SDS011;37613;51.788;21.582;2024-01-15T13:01:21;15.50;;;7.10;;
51529;SDS011;37613;51.788;21.582;2024-01-15T13:05:23;17.70;;;9.60;;
51529;SDS011;37613;51.788;21.582;2024-01-15T13:09:28;15.90;;;6.80;;
51529;SDS011;37613;51.788;21.582;2024-01-15T13:13:31;10.80;;;6.30;;
51529;SDS011;37613;51.788;21.582;2024-01-15T13:17:35;16.30;;;7.30;;
51529;SDS011;37613;51.788;21.582;2024-01-15T13:21:37;13.00;;;7.00;;
51529;SDS011;37613;51.788;21.582;2024-01-15T13:25:40;15.90;;;8.30;;
51529;SDS011;37613;51.788;21.582;2024-01-15T13:29:42;17.00;;;8.30;;
51529;SDS011;37613;51.788;21.582;2024-01-15T13:33:44;17.80;;;7.90;;
51529;SDS011;37613;51.788;21.582;2024-01-15T13:37:46;25.50;;;16.70;;
51529;SDS011;37613;51.788;21.582;2024-01-15T13:41:48;36.80;;;16.70;;
51529;SDS011;37613;51.788;21.582;2024-01-15T13:45:51;24.60;;;12.10;;
51529;SDS011;37613;51.788;21.582;2024-01-15T13:49:53;29.40;;;12.90;;
51529;SDS011;37613;51.788;21.582;2024-01-15T13:53:56;36.00;;;17.80;;
51529;SDS011;37613;51.788;21.582;2024-01-15T13:57:58;23.90;;;11.90;;
51529;SDS011;37613;51.788;21.582;2024-01-15T14:02:00;21.60;;;12.20;;
51529;SDS011;37613;51.788;21.582;2024-01-15T14:06:02;24.20;;;12.20;;
51529;SDS011;37613;51.788;21.582;2024-01-15T14:10:05;18.00;;;9.60;;
51529;SDS011;37613;51.788;21.582;2024-01-15T14:14:09;18.80;;;9.70;;
51529;SDS011;37613;51.788;21.582;2024-01-15T14:18:11;47.00;;;16.80;;
51529;SDS011;37613;51.788;21.582;2024-01-15T14:22:13;60.30;;;21.60;;
51529;SDS011;37613;51.788;21.582;2024-01-15T14:26:15;65.70;;;20.10;;
51529;SDS011;37613;51.788;21.582;2024-01-15T14:30:17;62.20;;;18.50;;
51529;SDS011;37613;51.788;21.582;2024-01-15T14:34:19;38.60;;;14.50;;
51529;SDS011;37613;51.788;21.582;2024-01-15T14:38:23;49.50;;;17.50;;
51529;SDS011;37613;51.788;21.582;2024-01-15T14:42:25;27.70;;;12.00;;
51529;SDS011;37613;51.788;21.582;2024-01-15T14:46:27;35.30;;;14.90;;
51529;SDS011;37613;51.788;21.582;2024-01-15T14:50:29;34.90;;;17.50;;
51529;SDS011;37613;51.788;21.582;2024-01-15T14:54:31;44.20;;;19.70;;
51529;SDS011;37613;51.788;21.582;2024-01-15T14:58:33;36.30;;;17.50;;
51529;SDS011;37613;51.788;21.582;2024-01-15T15:02:35;25.50;;;13.90;;
51529;SDS011;37613;51.788;21.582;2024-01-15T15:06:37;34.40;;;12.80;;
51529;SDS011;37613;51.788;21.582;2024-01-15T15:10:39;28.70;;;15.20;;
51529;SDS011;37613;51.788;21.582;2024-01-15T15:14:42;33.40;;;16.70;;
51529;SDS011;37613;51.788;21.582;2024-01-15T15:18:44;31.00;;;17.40;;
51529;SDS011;37613;51.788;21.582;2024-01-15T15:26:49;22.30;;;11.80;;
51529;SDS011;37613;51.788;21.582;2024-01-15T15:30:51;24.90;;;12.40;;
51529;SDS011;37613;51.788;21.582;2024-01-15T15:34:54;24.20;;;12.00;;
51529;SDS011;37613;51.788;21.582;2024-01-15T15:38:56;32.40;;;13.20;;
51529;SDS011;37613;51.788;21.582;2024-01-15T15:47:01;21.20;;;9.00;;
51529;SDS011;37613;51.788;21.582;2024-01-15T15:51:03;26.00;;;12.50;;
51529;SDS011;37613;51.788;21.582;2024-01-15T15:55:05;32.10;;;16.60;;
51529;SDS011;37613;51.788;21.582;2024-01-15T15:59:09;36.90;;;15.40;;
51529;SDS011;37613;51.788;21.582;2024-01-15T16:03:11;30.70;;;12.20;;
51529;SDS011;37613;51.788;21.582;2024-01-15T16:07:13;31.60;;;13.60;;
51529;SDS011;37613;51.788;21.582;2024-01-15T16:11:16;29.70;;;12.90;;
51529;SDS011;37613;51.788;21.582;2024-01-15T16:15:20;32.00;;;12.40;;
51529;SDS011;37613;51.788;21.582;2024-01-15T16:19:23;35.70;;;14.40;;
51529;SDS011;37613;51.788;21.582;2024-01-15T16:27:28;29.40;;;12.60;;
51529;SDS011;37613;51.788;21.582;2024-01-15T16:31:30;37.30;;;15.30;;
51529;SDS011;37613;51.788;21.582;2024-01-15T16:35:33;29.70;;;14.00;;
51529;SDS011;37613;51.788;21.582;2024-01-15T16:39:35;37.40;;;14.50;;
51529;SDS011;37613;51.788;21.582;2024-01-15T16:43:37;26.20;;;11.80;;
51529;SDS011;37613;51.788;21.582;2024-01-15T16:47:38;37.90;;;14.60;;
51529;SDS011;37613;51.788;21.582;2024-01-15T16:51:40;40.70;;;17.40;;
51529;SDS011;37613;51.788;21.582;2024-01-15T16:55:42;36.20;;;12.50;;
51529;SDS011;37613;51.788;21.582;2024-01-15T16:59:45;19.70;;;9.40;;
51529;SDS011;37613;51.788;21.582;2024-01-15T17:03:48;21.20;;;8.70;;
51529;SDS011;37613;51.788;21.582;2024-01-15T17:07:50;23.20;;;10.30;;
51529;SDS011;37613;51.788;21.582;2024-01-15T17:11:52;29.80;;;10.40;;
51529;SDS011;37613;51.788;21.582;2024-01-15T17:15:54;24.10;;;8.50;;
51529;SDS011;37613;51.788;21.582;2024-01-15T17:19:56;20.40;;;8.90;;
51529;SDS011;37613;51.788;21.582;2024-01-15T17:23:58;22.50;;;9.50;;
51529;SDS011;37613;51.788;21.582;2024-01-15T17:28:00;29.50;;;11.40;;
51529;SDS011;37613;51.788;21.582;2024-01-15T17:32:02;20.90;;;10.20;;
51529;SDS011;37613;51.788;21.582;2024-01-15T17:36:05;17.40;;;9.20;;
51529;SDS011;37613;51.788;21.582;2024-01-15T17:40:08;15.90;;;8.60;;
51529;SDS011;37613;51.788;21.582;2024-01-15T17:48:13;24.70;;;9.50;;
51529;SDS011;37613;51.788;21.582;2024-01-15T17:52:15;19.60;;;8.50;;
51529;SDS011;37613;51.788;21.582;2024-01-15T17:56:19;24.70;;;11.30;;
51529;SDS011;37613;51.788;21.582;2024-01-15T18:00:21;17.30;;;7.60;;
51529;SDS011;37613;51.788;21.582;2024-01-15T18:04:23;19.80;;;9.70;;
51529;SDS011;37613;51.788;21.582;2024-01-15T18:08:25;24.10;;;10.10;;
51529;SDS011;37613;51.788;21.582;2024-01-15T18:12:27;22.90;;;11.00;;
51529;SDS011;37613;51.788;21.582;2024-01-15T18:16:29;18.10;;;7.50;;
51529;SDS011;37613;51.788;21.582;2024-01-15T18:20:31;18.00;;;8.50;;
51529;SDS011;37613;51.788;21.582;2024-01-15T18:24:34;21.50;;;11.30;;
51529;SDS011;37613;51.788;21.582;2024-01-15T18:32:38;16.00;;;7.60;;
51529;SDS011;37613;51.788;21.582;2024-01-15T18:36:41;26.00;;;11.90;;
51529;SDS011;37613;51.788;21.582;2024-01-15T18:40:48;21.40;;;10.40;;
51529;SDS011;37613;51.788;21.582;2024-01-15T18:44:50;20.80;;;13.40;;
51529;SDS011;37613;51.788;21.582;2024-01-15T18:48:52;29.60;;;12.60;;
51529;SDS011;37613;51.788;21.582;2024-01-15T18:52:55;23.40;;;10.80;;
51529;SDS011;37613;51.788;21.582;2024-01-15T18:56:57;28.10;;;14.90;;
51529;SDS011;37613;51.788;21.582;2024-01-15T19:00:59;30.80;;;18.00;;
51529;SDS011;37613;51.788;21.582;2024-01-15T19:05:01;33.10;;;18.10;;
51529;SDS011;37613;51.788;21.582;2024-01-15T19:09:03;29.40;;;12.90;;
51529;SDS011;37613;51.788;21.582;2024-01-15T19:13:05;32.00;;;12.60;;
51529;SDS011;37613;51.788;21.582;2024-01-15T19:17:08;28.20;;;12.00;;
51529;SDS011;37613;51.788;21.582;2024-01-15T19:21:09;29.90;;;14.70;;
51529;SDS011;37613;51.788;21.582;2024-01-15T19:25:11;26.00;;;11.90;;
51529;SDS011;37613;51.788;21.582;2024-01-15T19:29:14;21.10;;;9.40;;
51529;SDS011;37613;51.788;21.582;2024-01-15T19:33:16;15.20;;;6.90;;
51529;SDS011;37613;51.788;21.582;2024-01-15T19:37:19;23.60;;;11.10;;
51529;SDS011;37613;51.788;21.582;2024-01-15T19:41:20;23.60;;;11.20;;
51529;SDS011;37613;51.788;21.582;2024-01-15T19:45:23;32.70;;;13.80;;
51529;SDS011;37613;51.788;21.582;2024-01-15T19:49:25;35.30;;;13.70;;
51529;SDS011;37613;51.788;21.582;2024-01-15T19:53:27;60.80;;;23.20;;
51529;SDS011;37613;51.788;21.582;2024-01-15T19:57:29;35.30;;;14.20;;
51529;SDS011;37613;51.788;21.582;2024-01-15T20:01:31;17.50;;;7.80;;
51529;SDS011;37613;51.788;21.582;2024-01-15T20:05:33;16.80;;;8.20;;
51529;SDS011;37613;51.788;21.582;2024-01-15T20:09:36;26.60;;;11.40;;
51529;SDS011;37613;51.788;21.582;2024-01-15T20:13:38;26.80;;;11.40;;
51529;SDS011;37613;51.788;21.582;2024-01-15T20:21:43;19.50;;;8.90;;
51529;SDS011;37613;51.788;21.582;2024-01-15T20:25:46;14.30;;;6.10;;
51529;SDS011;37613;51.788;21.582;2024-01-15T20:29:48;17.40;;;7.30;;
51529;SDS011;37613;51.788;21.582;2024-01-15T20:33:50;8.10;;;4.00;;
51529;SDS011;37613;51.788;21.582;2024-01-15T20:37:52;12.70;;;5.20;;
51529;SDS011;37613;51.788;21.582;2024-01-15T20:41:57;7.50;;;3.40;;
51529;SDS011;37613;51.788;21.582;2024-01-15T20:45:59;7.20;;;2.70;;
51529;SDS011;37613;51.788;21.582;2024-01-15T20:54:04;3.00;;;2.30;;
51529;SDS011;37613;51.788;21.582;2024-01-15T20:58:09;4.00;;;2.50;;
51529;SDS011;37613;51.788;21.582;2024-01-15T21:02:11;5.80;;;3.10;;
51529;SDS011;37613;51.788;21.582;2024-01-15T21:06:13;10.00;;;5.50;;
51529;SDS011;37613;51.788;21.582;2024-01-15T21:10:15;8.50;;;3.60;;
51529;SDS011;37613;51.788;21.582;2024-01-15T21:14:17;4.40;;;2.60;;
51529;SDS011;37613;51.788;21.582;2024-01-15T21:18:20;8.10;;;3.80;;
51529;SDS011;37613;51.788;21.582;2024-01-15T21:22:22;8.90;;;4.20;;
51529;SDS011;37613;51.788;21.582;2024-01-15T21:26:24;7.60;;;3.50;;
51529;SDS011;37613;51.788;21.582;2024-01-15T21:30:26;9.80;;;3.60;;
51529;SDS011;37613;51.788;21.582;2024-01-15T21:34:28;7.00;;;2.60;;
51529;SDS011;37613;51.788;21.582;2024-01-15T21:38:30;4.20;;;2.20;;
51529;SDS011;37613;51.788;21.582;2024-01-15T21:42:35;7.20;;;2.40;;
51529;SDS011;37613;51.788;21.582;2024-01-15T21:46:38;3.70;;;1.60;;
51529;SDS011;37613;51.788;21.582;2024-01-15T21:50:40;5.30;;;2.10;;
51529;SDS011;37613;51.788;21.582;2024-01-15T21:54:42;8.30;;;2.70;;
51529;SDS011;37613;51.788;21.582;2024-01-15T21:58:44;7.10;;;3.20;;
51529;SDS011;37613;51.788;21.582;2024-01-15T22:02:46;8.40;;;2.40;;
51529;SDS011;37613;51.788;21.582;2024-01-15T22:06:49;5.10;;;2.80;;
51529;SDS011;37613;51.788;21.582;2024-01-15T22:10:51;5.60;;;2.60;;
51529;SDS011;37613;51.788;21.582;2024-01-15T22:14:53;6.50;;;2.80;;
51529;SDS011;37613;51.788;21.582;2024-01-15T22:18:55;8.50;;;3.20;;
51529;SDS011;37613;51.788;21.582;2024-01-15T22:22:57;7.80;;;3.10;;
51529;SDS011;37613;51.788;21.582;2024-01-15T22:26:59;3.60;;;1.80;;
51529;SDS011;37613;51.788;21.582;2024-01-15T22:31:01;6.20;;;2.40;;
51529;SDS011;37613;51.788;21.582;2024-01-15T22:35:04;7.50;;;2.20;;
51529;SDS011;37613;51.788;21.582;2024-01-15T22:39:06;6.20;;;2.10;;
51529;SDS011;37613;51.788;21.582;2024-01-15T22:43:08;5.30;;;2.10;;
51529;SDS011;37613;51.788;21.582;2024-01-15T22:47:10;6.80;;;2.70;;
51529;SDS011;37613;51.788;21.582;2024-01-15T22:51:12;8.50;;;2.70;;
51529;SDS011;37613;51.788;21.582;2024-01-15T22:55:14;4.90;;;1.50;;
51529;SDS011;37613;51.788;21.582;2024-01-15T22:59:16;3.40;;;1.50;;
51529;SDS011;37613;51.788;21.582;2024-01-15T23:03:20;2.90;;;1.70;;
51529;SDS011;37613;51.788;21.582;2024-01-15T23:07:23;3.70;;;1.40;;
51529;SDS011;37613;51.788;21.582;2024-01-15T23:11:25;4.40;;;1.60;;
51529;SDS011;37613;51.788;21.582;2024-01-15T23:15:27;2.60;;;1.50;;
51529;SDS011;37613;51.788;21.582;2024-01-15T23:19:30;1.60;;;1.00;;
51529;SDS011;37613;51.788;21.582;2024-01-15T23:23:32;4.80;;;1.30;;
51529;SDS011;37613;51.788;21.582;2024-01-15T23:27:34;3.40;;;1.10;;
51529;SDS011;37613;51.788;21.582;2024-01-15T23:31:39;2.40;;;1.00;;
51529;SDS011;37613;51.788;21.582;2024-01-15T23:35:42;1.30;;;0.60;;
51529;SDS011;37613;51.788;21.582;2024-01-15T23:39:44;2.50;;;0.80;;
51529;SDS011;37613;51.788;21.582;2024-01-15T23:43:46;3.00;;;0.70;;
51529;SDS011;37613;51.788;21.582;2024-01-15T23:47:49;2.10;;;0.90;;
51529;SDS011;37613;51.788;21.582;2024-01-15T23:51:54;4.00;;;0.90;;
51529;SDS011;37613;51.788;21.582;2024-01-15T23:55:56;1.00;;;0.90;;
